sensor_id;sensor_type;location;lat;lon;timestamp;pressure;altitude;pressure_sealevel;temperature;humidity
49515;BME280;35415;47.870;16.058;2022-10-16T00:01:10;97560.94;;;12.46;100.00
49515;BME280;35415;47.870;16.058;2022-10-16T00:03:38;97548.25;;;12.36;100.00
49515;BME280;35415;47.870;16.058;2022-10-16T00:06:06;97561.72;;;12.41;100.00
49515;BME280;35415;47.870;16.058;2022-10-16T00:08:35;97560.63;;;12.42;100.00
49515;BME280;35415;47.870;16.058;2022-10-16T00:11:05;97560.38;;;12.39;100.00
49515;BME280;35415;47.870;16.058;2022-10-16T00:13:34;97560.41;;;12.33;100.00
49515;BME280;35415;47.870;16.058;2022-10-16T00:16:01;97564.97;;;12.33;100.00
49515;BME280;35415;47.870;16.058;2022-10-16T00:18:28;97573.34;;;12.31;100.00
49515;BME280;35415;47.870;16.058;2022-10-16T00:21:00;97562.03;;;12.29;100.00
49515;BME280;35415;47.870;16.058;2022-10-16T00:23:28;97565.53;;;12.30;100.00
49515;BME280;35415;47.870;16.058;2022-10-16T00:25:57;97570.91;;;12.25;100.00
49515;BME280;35415;47.870;16.058;2022-10-16T00:28:25;97563.09;;;12.23;100.00
49515;BME280;35415;47.870;16.058;2022-10-16T00:30:53;97564.97;;;12.23;100.00
49515;BME280;35415;47.870;16.058;2022-10-16T00:33:21;97565.53;;;12.20;100.00
49515;BME280;35415;47.870;16.058;2022-10-16T00:35:48;97561.75;;;12.16;100.00
49515;BME280;35415;47.870;16.058;2022-10-16T00:38:16;97556.38;;;12.11;100.00
49515;BME280;35415;47.870;16.058;2022-10-16T00:40:43;97558.50;;;12.09;100.00
49515;BME280;35415;47.870;16.058;2022-10-16T00:43:33;97558.78;;;12.12;100.00
49515;BME280;35415;47.870;16.058;2022-10-16T00:46:02;97548.81;;;11.97;100.00
49515;BME280;35415;47.870;16.058;2022-10-16T00:48:29;97566.88;;;12.02;100.00
49515;BME280;35415;47.870;16.058;2022-10-16T00:50:57;97570.38;;;12.02;100.00
49515;BME280;35415;47.870;16.058;2022-10-16T00:53:25;97555.25;;;11.91;100.00
49515;BME280;35415;47.870;16.058;2022-10-16T00:55:52;97562.56;;;11.96;100.00
49515;BME280;35415;47.870;16.058;2022-10-16T00:58:21;97574.69;;;11.93;100.00
49515;BME280;35415;47.870;16.058;2022-10-16T01:00:48;97583.59;;;11.94;100.00
49515;BME280;35415;47.870;16.058;2022-10-16T01:03:24;97578.72;;;11.91;100.00
49515;BME280;35415;47.870;16.058;2022-10-16T01:06:01;97572.78;;;11.89;100.00
49515;BME280;35415;47.870;16.058;2022-10-16T01:08:41;97580.34;;;11.87;100.00
49515;BME280;35415;47.870;16.058;2022-10-16T01:11:17;97583.56;;;11.84;100.00
49515;BME280;35415;47.870;16.058;2022-10-16T01:13:52;97576.28;;;11.84;100.00
49515;BME280;35415;47.870;16.058;2022-10-16T01:16:27;97561.41;;;11.66;100.00
49515;BME280;35415;47.870;16.058;2022-10-16T01:19:00;97574.09;;;11.76;100.00
49515;BME280;35415;47.870;16.058;2022-10-16T01:21:31;97573.28;;;11.75;100.00
49515;BME280;35415;47.870;16.058;2022-10-16T01:24:05;97574.09;;;11.76;100.00
49515;BME280;35415;47.870;16.058;2022-10-16T01:26:46;97566.25;;;11.69;100.00
49515;BME280;35415;47.870;16.058;2022-10-16T01:29:20;97574.88;;;11.71;100.00
49515;BME280;35415;47.870;16.058;2022-10-16T01:31:56;97585.94;;;11.75;100.00
49515;BME280;35415;47.870;16.058;2022-10-16T01:34:32;97569.50;;;11.66;100.00
49515;BME280;35415;47.870;16.058;2022-10-16T01:37:04;97576.22;;;11.69;100.00
49515;BME280;35415;47.870;16.058;2022-10-16T01:39:35;97584.59;;;11.67;100.00
49515;BME280;35415;47.870;16.058;2022-10-16T01:42:08;97580.00;;;11.68;100.00
49515;BME280;35415;47.870;16.058;2022-10-16T01:44:38;97580.81;;;11.68;100.00
49515;BME280;35415;47.870;16.058;2022-10-16T01:47:07;97580.28;;;11.66;100.00
49515;BME280;35415;47.870;16.058;2022-10-16T01:49:38;97582.97;;;11.66;100.00
49515;BME280;35415;47.870;16.058;2022-10-16T01:52:10;97587.56;;;11.66;100.00
49515;BME280;35415;47.870;16.058;2022-10-16T01:54:41;97588.63;;;11.65;100.00
49515;BME280;35415;47.870;16.058;2022-10-16T01:57:10;97585.13;;;11.64;100.00
49515;BME280;35415;47.870;16.058;2022-10-16T01:59:44;97594.03;;;11.65;100.00
49515;BME280;35415;47.870;16.058;2022-10-16T02:02:14;97595.91;;;11.64;100.00
49515;BME280;35415;47.870;16.058;2022-10-16T02:04:45;97589.72;;;11.64;100.00
49515;BME280;35415;47.870;16.058;2022-10-16T02:07:13;97585.13;;;11.64;100.00
49515;BME280;35415;47.870;16.058;2022-10-16T02:09:41;97570.81;;;11.54;100.00
49515;BME280;35415;47.870;16.058;2022-10-16T02:12:10;97578.63;;;11.55;100.00
49515;BME280;35415;47.870;16.058;2022-10-16T02:14:40;97584.84;;;11.61;100.00
49515;BME280;35415;47.870;16.058;2022-10-16T02:17:12;97585.94;;;11.60;100.00
49515;BME280;35415;47.870;16.058;2022-10-16T02:19:40;97587.81;;;11.59;100.00
49515;BME280;35415;47.870;16.058;2022-10-16T02:22:14;97596.94;;;11.58;100.00
49515;BME280;35415;47.870;16.058;2022-10-16T02:24:49;97605.84;;;11.59;100.00
49515;BME280;35415;47.870;16.058;2022-10-16T02:27:23;97564.84;;;11.41;100.00
49515;BME280;35415;47.870;16.058;2022-10-16T02:30:03;97598.84;;;11.58;100.00
49515;BME280;35415;47.870;16.058;2022-10-16T02:32:34;97584.00;;;11.50;100.00
49515;BME280;35415;47.870;16.058;2022-10-16T02:35:02;97601.28;;;11.59;100.00
49515;BME280;35415;47.870;16.058;2022-10-16T02:37:31;97595.63;;;11.61;100.00
49515;BME280;35415;47.870;16.058;2022-10-16T02:40:00;97583.47;;;11.53;100.00
49515;BME280;35415;47.870;16.058;2022-10-16T02:42:29;97604.25;;;11.63;100.00
49515;BME280;35415;47.870;16.058;2022-10-16T02:44:57;97601.56;;;11.63;100.00
49515;BME280;35415;47.870;16.058;2022-10-16T02:47:24;97600.47;;;11.64;100.00
49515;BME280;35415;47.870;16.058;2022-10-16T02:49:52;97604.53;;;11.61;100.00
49515;BME280;35415;47.870;16.058;2022-10-16T02:52:19;97605.34;;;11.62;100.00
49515;BME280;35415;47.870;16.058;2022-10-16T02:54:46;97582.66;;;11.48;100.00
49515;BME280;35415;47.870;16.058;2022-10-16T02:57:13;97598.06;;;11.62;100.00
49515;BME280;35415;47.870;16.058;2022-10-16T02:59:40;97606.69;;;11.59;100.00
49515;BME280;35415;47.870;16.058;2022-10-16T03:02:08;97613.91;;;11.59;100.00
49515;BME280;35415;47.870;16.058;2022-10-16T03:04:36;97611.22;;;11.59;100.00
49515;BME280;35415;47.870;16.058;2022-10-16T03:07:03;97609.38;;;11.59;100.00
49515;BME280;35415;47.870;16.058;2022-10-16T03:09:31;97613.91;;;11.59;100.00
49515;BME280;35415;47.870;16.058;2022-10-16T03:11:58;97598.84;;;11.58;100.00
49515;BME280;35415;47.870;16.058;2022-10-16T03:14:25;97589.94;;;11.57;100.00
49515;BME280;35415;47.870;16.058;2022-10-16T03:16:52;97594.53;;;11.57;100.00
49515;BME280;35415;47.870;16.058;2022-10-16T03:19:20;97595.88;;;11.54;100.00
49515;BME280;35415;47.870;16.058;2022-10-16T03:21:47;97587.25;;;11.57;100.00
49515;BME280;35415;47.870;16.058;2022-10-16T03:24:14;97591.28;;;11.55;100.00
49515;BME280;35415;47.870;16.058;2022-10-16T03:26:41;97589.41;;;11.50;100.00
49515;BME280;35415;47.870;16.058;2022-10-16T03:29:08;97603.41;;;11.52;100.00
49515;BME280;35415;47.870;16.058;2022-10-16T03:31:35;97595.59;;;11.51;100.00
49515;BME280;35415;47.870;16.058;2022-10-16T03:34:02;97600.16;;;11.50;100.00
49515;BME280;35415;47.870;16.058;2022-10-16T03:36:31;97601.50;;;11.48;100.00
49515;BME280;35415;47.870;16.058;2022-10-16T03:38:58;97612.28;;;11.48;100.00
49515;BME280;35415;47.870;16.058;2022-10-16T03:41:25;97602.88;;;11.50;100.00
49515;BME280;35415;47.870;16.058;2022-10-16T03:43:52;97610.41;;;11.48;100.00
49515;BME280;35415;47.870;16.058;2022-10-16T03:46:19;97607.97;;;11.47;100.00
49515;BME280;35415;47.870;16.058;2022-10-16T03:48:46;97601.19;;;11.34;100.00
49515;BME280;35415;47.870;16.058;2022-10-16T03:51:13;97624.41;;;11.45;100.00
49515;BME280;35415;47.870;16.058;2022-10-16T03:53:41;97611.97;;;11.39;100.00
49515;BME280;35415;47.870;16.058;2022-10-16T03:56:09;97627.09;;;11.45;100.00
49515;BME280;35415;47.870;16.058;2022-10-16T03:58:36;97627.38;;;11.43;100.00
49515;BME280;35415;47.870;16.058;2022-10-16T04:01:03;97631.38;;;11.41;100.00
49515;BME280;35415;47.870;16.058;2022-10-16T04:03:30;97639.22;;;11.42;100.00
49515;BME280;35415;47.870;16.058;2022-10-16T04:05:57;97640.25;;;11.41;100.00
49515;BME280;35415;47.870;16.058;2022-10-16T04:08:24;97642.94;;;11.41;100.00
49515;BME280;35415;47.870;16.058;2022-10-16T04:10:52;97645.41;;;11.43;100.00
49515;BME280;35415;47.870;16.058;2022-10-16T04:13:19;97632.44;;;11.35;100.00
49515;BME280;35415;47.870;16.058;2022-10-16T04:15:47;97652.69;;;11.42;100.00
49515;BME280;35415;47.870;16.058;2022-10-16T04:18:14;97648.34;;;11.41;100.00
49515;BME280;35415;47.870;16.058;2022-10-16T04:20:41;97648.91;;;11.43;100.00
49515;BME280;35415;47.870;16.058;2022-10-16T04:23:08;97645.41;;;11.43;100.00
49515;BME280;35415;47.870;16.058;2022-10-16T04:25:35;97642.72;;;11.43;100.00
49515;BME280;35415;47.870;16.058;2022-10-16T04:28:03;97612.22;;;11.27;100.00
49515;BME280;35415;47.870;16.058;2022-10-16T04:30:30;97635.69;;;11.42;100.00
49515;BME280;35415;47.870;16.058;2022-10-16T04:32:59;97633.25;;;11.40;100.00
49515;BME280;35415;47.870;16.058;2022-10-16T04:35:26;97631.63;;;11.39;100.00
49515;BME280;35415;47.870;16.058;2022-10-16T04:37:53;97637.03;;;11.39;100.00
49515;BME280;35415;47.870;16.058;2022-10-16T04:40:20;97634.34;;;11.39;100.00
49515;BME280;35415;47.870;16.058;2022-10-16T04:42:47;97623.81;;;11.38;100.00
49515;BME280;35415;47.870;16.058;2022-10-16T04:45:17;97636.22;;;11.39;100.00
49515;BME280;35415;47.870;16.058;2022-10-16T04:47:44;97641.06;;;11.37;100.00
49515;BME280;35415;47.870;16.058;2022-10-16T04:50:11;97651.28;;;11.35;100.00
49515;BME280;35415;47.870;16.058;2022-10-16T04:52:38;97639.97;;;11.33;100.00
49515;BME280;35415;47.870;16.058;2022-10-16T04:55:06;97649.66;;;11.34;100.00
49515;BME280;35415;47.870;16.058;2022-10-16T04:57:33;97646.16;;;11.33;100.00
49515;BME280;35415;47.870;16.058;2022-10-16T05:00:00;97646.72;;;11.35;100.00
49515;BME280;35415;47.870;16.058;2022-10-16T05:02:30;97648.84;;;11.33;100.00
49515;BME280;35415;47.870;16.058;2022-10-16T05:04:57;97646.44;;;11.32;100.00
49515;BME280;35415;47.870;16.058;2022-10-16T05:07:24;97640.47;;;11.25;100.00
49515;BME280;35415;47.870;16.058;2022-10-16T05:09:51;97652.63;;;11.37;100.00
49515;BME280;35415;47.870;16.058;2022-10-16T05:12:18;97650.47;;;11.34;100.00
49515;BME280;35415;47.870;16.058;2022-10-16T05:14:46;97653.97;;;11.35;100.00
49515;BME280;35415;47.870;16.058;2022-10-16T05:17:13;97652.09;;;11.35;100.00
49515;BME280;35415;47.870;16.058;2022-10-16T05:19:42;97655.34;;;11.37;100.00
49515;BME280;35415;47.870;16.058;2022-10-16T05:22:10;97654.53;;;11.37;100.00
49515;BME280;35415;47.870;16.058;2022-10-16T05:24:37;97660.19;;;11.35;100.00
49515;BME280;35415;47.870;16.058;2022-10-16T05:27:04;97669.88;;;11.36;100.00
49515;BME280;35415;47.870;16.058;2022-10-16T05:29:31;97666.38;;;11.36;100.00
49515;BME280;35415;47.870;16.058;2022-10-16T05:31:58;97657.69;;;11.24;100.00
49515;BME280;35415;47.870;16.058;2022-10-16T05:34:25;97677.16;;;11.36;100.00
49515;BME280;35415;47.870;16.058;2022-10-16T05:36:53;97678.22;;;11.35;100.00
49515;BME280;35415;47.870;16.058;2022-10-16T05:39:20;97694.94;;;11.37;100.00
49515;BME280;35415;47.870;16.058;2022-10-16T05:41:49;97687.66;;;11.37;100.00
49515;BME280;35415;47.870;16.058;2022-10-16T05:44:17;97693.03;;;11.37;100.00
49515;BME280;35415;47.870;16.058;2022-10-16T05:46:46;97692.22;;;11.37;100.00
49515;BME280;35415;47.870;16.058;2022-10-16T05:49:13;97689.00;;;11.35;100.00
49515;BME280;35415;47.870;16.058;2022-10-16T05:51:40;97694.66;;;11.38;100.00
49515;BME280;35415;47.870;16.058;2022-10-16T05:54:09;97694.13;;;11.36;100.00
49515;BME280;35415;47.870;16.058;2022-10-16T05:56:36;97702.72;;;11.33;100.00
49515;BME280;35415;47.870;16.058;2022-10-16T05:59:03;97681.34;;;11.17;100.00
49515;BME280;35415;47.870;16.058;2022-10-16T06:01:30;97710.25;;;11.31;100.00
49515;BME280;35415;47.870;16.058;2022-10-16T06:03:58;97709.72;;;11.29;100.00
49515;BME280;35415;47.870;16.058;2022-10-16T06:06:27;97717.50;;;11.26;100.00
49515;BME280;35415;47.870;16.058;2022-10-16T06:08:56;97719.94;;;11.27;100.00
49515;BME280;35415;47.870;16.058;2022-10-16T06:11:26;97720.44;;;11.24;100.00
49515;BME280;35415;47.870;16.058;2022-10-16T06:13:54;97734.69;;;11.25;100.00
49515;BME280;35415;47.870;16.058;2022-10-16T06:16:23;97740.63;;;11.22;100.00
49515;BME280;35415;47.870;16.058;2022-10-16T06:18:51;97753.53;;;11.20;100.00
49515;BME280;35415;47.870;16.058;2022-10-16T06:21:20;97753.25;;;11.16;100.00
49515;BME280;35415;47.870;16.058;2022-10-16T06:23:48;97760.25;;;11.17;100.00
49515;BME280;35415;47.870;16.058;2022-10-16T06:26:16;97757.81;;;11.15;100.00
49515;BME280;35415;47.870;16.058;2022-10-16T06:28:46;97760.00;;;11.19;100.00
49515;BME280;35415;47.870;16.058;2022-10-16T06:31:13;97768.06;;;11.19;100.00
49515;BME280;35415;47.870;16.058;2022-10-16T06:33:41;97743.19;;;11.06;100.00
49515;BME280;35415;47.870;16.058;2022-10-16T06:36:09;97770.22;;;11.22;100.00
49515;BME280;35415;47.870;16.058;2022-10-16T06:38:37;97759.75;;;11.25;100.00
49515;BME280;35415;47.870;16.058;2022-10-16T06:41:06;97768.16;;;11.29;100.00
49515;BME280;35415;47.870;16.058;2022-10-16T06:43:33;97764.13;;;11.31;100.00
49515;BME280;35415;47.870;16.058;2022-10-16T06:46:05;97766.03;;;11.36;100.00
49515;BME280;35415;47.870;16.058;2022-10-16T06:48:33;97770.88;;;11.39;100.00
49515;BME280;35415;47.870;16.058;2022-10-16T06:51:01;97765.81;;;11.42;100.00
49515;BME280;35415;47.870;16.058;2022-10-16T06:53:32;97759.91;;;11.45;100.00
49515;BME280;35415;47.870;16.058;2022-10-16T06:56:06;97760.72;;;11.51;100.00
49515;BME280;35415;47.870;16.058;2022-10-16T06:58:33;97761.81;;;11.55;100.00
49515;BME280;35415;47.870;16.058;2022-10-16T07:01:00;97773.72;;;11.59;100.00
49515;BME280;35415;47.870;16.058;2022-10-16T07:03:29;97766.19;;;11.61;100.00
49515;BME280;35415;47.870;16.058;2022-10-16T07:05:56;97769.97;;;11.65;100.00
49515;BME280;35415;47.870;16.058;2022-10-16T07:08:23;97782.38;;;11.71;100.00
49515;BME280;35415;47.870;16.058;2022-10-16T07:10:58;97781.63;;;11.76;100.00
49515;BME280;35415;47.870;16.058;2022-10-16T07:13:25;97790.03;;;11.80;100.00
49515;BME280;35415;47.870;16.058;2022-10-16T07:15:52;97797.56;;;11.83;100.00
49515;BME280;35415;47.870;16.058;2022-10-16T07:18:19;97794.91;;;11.88;100.00
49515;BME280;35415;47.870;16.058;2022-10-16T07:20:47;97794.09;;;11.92;100.00
49515;BME280;35415;47.870;16.058;2022-10-16T07:23:14;97798.69;;;11.92;100.00
49515;BME280;35415;47.870;16.058;2022-10-16T07:25:41;97805.47;;;12.04;100.00
49515;BME280;35415;47.870;16.058;2022-10-16T07:28:08;97805.75;;;12.08;100.00
49515;BME280;35415;47.870;16.058;2022-10-16T07:30:36;97806.59;;;12.14;100.00
49515;BME280;35415;47.870;16.058;2022-10-16T07:33:03;97813.63;;;12.20;100.00
49515;BME280;35415;47.870;16.058;2022-10-16T07:35:30;97810.13;;;12.19;100.00
49515;BME280;35415;47.870;16.058;2022-10-16T07:37:59;97805.84;;;12.28;100.00
49515;BME280;35415;47.870;16.058;2022-10-16T07:40:26;97796.16;;;12.32;100.00
49515;BME280;35415;47.870;16.058;2022-10-16T07:42:53;97803.16;;;12.39;100.00
49515;BME280;35415;47.870;16.058;2022-10-16T07:45:20;97805.91;;;12.44;100.00
49515;BME280;35415;47.870;16.058;2022-10-16T07:47:49;97805.09;;;12.48;100.00
49515;BME280;35415;47.870;16.058;2022-10-16T07:50:16;97804.81;;;12.55;100.00
49515;BME280;35415;47.870;16.058;2022-10-16T07:52:43;97808.91;;;12.62;100.00
49515;BME280;35415;47.870;16.058;2022-10-16T07:55:12;97791.88;;;12.57;100.00
49515;BME280;35415;47.870;16.058;2022-10-16T07:57:39;97804.31;;;12.73;100.00
49515;BME280;35415;47.870;16.058;2022-10-16T08:00:08;97818.38;;;12.85;100.00
49515;BME280;35415;47.870;16.058;2022-10-16T08:02:38;97820.81;;;12.92;100.00
49515;BME280;35415;47.870;16.058;2022-10-16T08:05:06;97819.22;;;12.96;100.00
49515;BME280;35415;47.870;16.058;2022-10-16T08:07:34;97821.09;;;13.06;100.00
49515;BME280;35415;47.870;16.058;2022-10-16T08:10:01;97819.75;;;13.13;100.00
49515;BME280;35415;47.870;16.058;2022-10-16T08:12:30;97825.44;;;13.22;100.00
49515;BME280;35415;47.870;16.058;2022-10-16T08:14:57;97827.09;;;13.28;100.00
49515;BME280;35415;47.870;16.058;2022-10-16T08:17:24;97830.56;;;13.39;100.00
49515;BME280;35415;47.870;16.058;2022-10-16T08:19:51;97834.09;;;13.44;100.00
49515;BME280;35415;47.870;16.058;2022-10-16T08:22:18;97826.78;;;13.55;100.00
49515;BME280;35415;47.870;16.058;2022-10-16T08:24:45;97831.91;;;13.62;100.00
49515;BME280;35415;47.870;16.058;2022-10-16T08:27:12;97822.69;;;13.68;100.00
49515;BME280;35415;47.870;16.058;2022-10-16T08:29:40;97836.22;;;13.78;100.00
49515;BME280;35415;47.870;16.058;2022-10-16T08:32:07;97822.91;;;13.87;100.00
49515;BME280;35415;47.870;16.058;2022-10-16T08:34:34;97825.31;;;13.93;100.00
49515;BME280;35415;47.870;16.058;2022-10-16T08:37:02;97821.53;;;13.99;100.00
49515;BME280;35415;47.870;16.058;2022-10-16T08:39:29;97833.13;;;14.10;100.00
49515;BME280;35415;47.870;16.058;2022-10-16T08:42:16;97828.47;;;14.21;100.00
49515;BME280;35415;47.870;16.058;2022-10-16T08:45:05;97830.06;;;14.32;100.00
49515;BME280;35415;47.870;16.058;2022-10-16T08:47:45;97827.56;;;14.40;100.00
49515;BME280;35415;47.870;16.058;2022-10-16T08:50:21;97832.97;;;14.51;100.00
49515;BME280;35415;47.870;16.058;2022-10-16T08:52:49;97833.47;;;14.63;100.00
49515;BME280;35415;47.870;16.058;2022-10-16T08:55:36;97830.41;;;14.74;100.00
49515;BME280;35415;47.870;16.058;2022-10-16T08:58:11;97835.75;;;14.85;100.00
49515;BME280;35415;47.870;16.058;2022-10-16T09:00:40;97836.19;;;15.02;100.00
49515;BME280;35415;47.870;16.058;2022-10-16T09:03:17;97828.81;;;15.08;100.00
49515;BME280;35415;47.870;16.058;2022-10-16T09:05:57;97833.81;;;15.29;100.00
49515;BME280;35415;47.870;16.058;2022-10-16T09:08:34;97837.22;;;15.40;100.00
49515;BME280;35415;47.870;16.058;2022-10-16T09:11:09;97831.09;;;15.58;100.00
49515;BME280;35415;47.870;16.058;2022-10-16T09:13:46;97831.56;;;15.71;100.00
49515;BME280;35415;47.870;16.058;2022-10-16T09:16:19;97830.88;;;15.84;100.00
49515;BME280;35415;47.870;16.058;2022-10-16T09:18:55;97824.72;;;16.02;100.00
49515;BME280;35415;47.870;16.058;2022-10-16T09:21:29;97828.88;;;16.18;100.00
49515;BME280;35415;47.870;16.058;2022-10-16T09:23:59;97826.47;;;16.36;100.00
49515;BME280;35415;47.870;16.058;2022-10-16T09:26:31;97829.31;;;16.49;100.00
49515;BME280;35415;47.870;16.058;2022-10-16T09:28:58;97832.34;;;16.67;100.00
49515;BME280;35415;47.870;16.058;2022-10-16T09:31:26;97836.53;;;16.78;98.74
49515;BME280;35415;47.870;16.058;2022-10-16T09:33:57;97833.28;;;16.95;99.32
49515;BME280;35415;47.870;16.058;2022-10-16T09:36:27;97841.50;;;17.08;97.74
49515;BME280;35415;47.870;16.058;2022-10-16T09:39:03;97839.88;;;17.26;98.73
49515;BME280;35415;47.870;16.058;2022-10-16T09:41:33;97842.03;;;17.43;97.97
49515;BME280;35415;47.870;16.058;2022-10-16T09:44:02;97839.38;;;17.57;97.44
49515;BME280;35415;47.870;16.058;2022-10-16T09:46:33;97841.84;;;17.72;97.12
49515;BME280;35415;47.870;16.058;2022-10-16T09:49:02;97839.16;;;17.86;96.22
49515;BME280;35415;47.870;16.058;2022-10-16T09:51:32;97839.50;;;17.98;94.68
49515;BME280;35415;47.870;16.058;2022-10-16T09:54:02;97843.22;;;18.16;94.43
49515;BME280;35415;47.870;16.058;2022-10-16T09:56:39;97781.59;;;17.92;93.36
49515;BME280;35415;47.870;16.058;2022-10-16T09:59:10;97838.84;;;18.42;92.41
49515;BME280;35415;47.870;16.058;2022-10-16T10:01:41;97845.28;;;18.60;91.43
49515;BME280;35415;47.870;16.058;2022-10-16T10:04:08;97833.81;;;18.63;90.36
49515;BME280;35415;47.870;16.058;2022-10-16T10:06:36;97848.13;;;18.82;88.35
49515;BME280;35415;47.870;16.058;2022-10-16T10:09:06;97842.91;;;18.94;87.68
49515;BME280;35415;47.870;16.058;2022-10-16T10:11:43;97843.19;;;19.07;85.88
49515;BME280;35415;47.870;16.058;2022-10-16T10:14:26;97837.38;;;19.22;87.37
49515;BME280;35415;47.870;16.058;2022-10-16T10:17:10;97848.56;;;19.34;87.29
49515;BME280;35415;47.870;16.058;2022-10-16T10:19:40;97850.84;;;19.41;84.21
49515;BME280;35415;47.870;16.058;2022-10-16T10:22:22;97851.81;;;19.45;85.28
49515;BME280;35415;47.870;16.058;2022-10-16T10:27:46;97837.75;;;19.51;82.35
49515;BME280;35415;47.870;16.058;2022-10-16T10:30:20;97856.53;;;19.75;83.07
49515;BME280;35415;47.870;16.058;2022-10-16T10:33:05;97858.84;;;19.82;82.27
49515;BME280;35415;47.870;16.058;2022-10-16T10:35:43;97854.03;;;19.88;81.27
49515;BME280;35415;47.870;16.058;2022-10-16T10:38:25;97853.59;;;19.94;81.31
49515;BME280;35415;47.870;16.058;2022-10-16T10:41:04;97852.94;;;19.97;80.64
49515;BME280;35415;47.870;16.058;2022-10-16T10:43:46;97851.41;;;20.05;80.41
49515;BME280;35415;47.870;16.058;2022-10-16T10:46:23;97845.78;;;20.10;80.19
49515;BME280;35415;47.870;16.058;2022-10-16T10:49:08;97845.34;;;20.17;80.89
49515;BME280;35415;47.870;16.058;2022-10-16T10:51:46;97841.97;;;20.20;79.31
49515;BME280;35415;47.870;16.058;2022-10-16T10:54:24;97852.44;;;20.26;78.61
49515;BME280;35415;47.870;16.058;2022-10-16T10:56:58;97843.28;;;20.31;77.82
49515;BME280;35415;47.870;16.058;2022-10-16T10:59:54;97852.34;;;20.40;78.94
49515;BME280;35415;47.870;16.058;2022-10-16T11:02:29;97851.88;;;20.47;77.23
49515;BME280;35415;47.870;16.058;2022-10-16T11:05:15;97856.09;;;20.53;78.31
49515;BME280;35415;47.870;16.058;2022-10-16T11:07:49;97850.81;;;20.56;76.88
49515;BME280;35415;47.870;16.058;2022-10-16T11:10:21;97867.03;;;20.61;76.04
49515;BME280;35415;47.870;16.058;2022-10-16T11:12:53;97842.44;;;20.61;75.30
49515;BME280;35415;47.870;16.058;2022-10-16T11:15:26;97847.78;;;20.66;74.09
49515;BME280;35415;47.870;16.058;2022-10-16T11:17:59;97845.03;;;20.66;74.82
49515;BME280;35415;47.870;16.058;2022-10-16T11:20:33;97852.94;;;20.68;74.28
49515;BME280;35415;47.870;16.058;2022-10-16T11:23:06;97856.78;;;20.76;74.54
49515;BME280;35415;47.870;16.058;2022-10-16T11:25:39;97853.56;;;20.73;74.07
49515;BME280;35415;47.870;16.058;2022-10-16T11:28:11;97807.38;;;20.46;74.38
49515;BME280;35415;47.870;16.058;2022-10-16T11:30:44;97835.72;;;20.67;74.71
49515;BME280;35415;47.870;16.058;2022-10-16T11:33:26;97851.81;;;20.86;75.70
49515;BME280;35415;47.870;16.058;2022-10-16T11:36:01;97857.63;;;20.85;73.36
49515;BME280;35415;47.870;16.058;2022-10-16T11:38:34;97863.09;;;20.93;73.84
49515;BME280;35415;47.870;16.058;2022-10-16T11:41:10;97859.22;;;20.94;72.87
49515;BME280;35415;47.870;16.058;2022-10-16T11:43:43;97873.69;;;20.95;72.76
49515;BME280;35415;47.870;16.058;2022-10-16T11:46:19;97862.75;;;20.95;70.89
49515;BME280;35415;47.870;16.058;2022-10-16T11:48:51;97854.88;;;20.85;70.94
49515;BME280;35415;47.870;16.058;2022-10-16T11:51:26;97862.59;;;20.91;72.08
49515;BME280;35415;47.870;16.058;2022-10-16T11:53:59;97866.16;;;20.83;70.98
49515;BME280;35415;47.870;16.058;2022-10-16T11:56:30;97861.13;;;20.77;71.24
49515;BME280;35415;47.870;16.058;2022-10-16T11:59:02;97860.81;;;20.69;71.53
49515;BME280;35415;47.870;16.058;2022-10-16T12:01:34;97860.94;;;20.64;72.55
49515;BME280;35415;47.870;16.058;2022-10-16T12:04:16;97859.47;;;20.58;72.80
49515;BME280;35415;47.870;16.058;2022-10-16T12:06:51;97870.41;;;20.50;72.82
49515;BME280;35415;47.870;16.058;2022-10-16T12:09:24;97868.44;;;20.41;73.36
49515;BME280;35415;47.870;16.058;2022-10-16T12:11:52;97859.56;;;20.36;74.06
49515;BME280;35415;47.870;16.058;2022-10-16T12:14:38;97851.31;;;20.27;75.44
49515;BME280;35415;47.870;16.058;2022-10-16T12:17:24;97860.81;;;20.30;75.74
49515;BME280;35415;47.870;16.058;2022-10-16T12:20:20;97860.47;;;20.31;76.04
49515;BME280;35415;47.870;16.058;2022-10-16T12:22:52;97860.47;;;20.23;75.72
49515;BME280;35415;47.870;16.058;2022-10-16T12:25:23;97858.22;;;20.16;75.52
49515;BME280;35415;47.870;16.058;2022-10-16T12:28:02;97852.22;;;20.14;76.19
49515;BME280;35415;47.870;16.058;2022-10-16T12:30:33;97860.88;;;20.07;76.42
49515;BME280;35415;47.870;16.058;2022-10-16T12:33:18;97849.00;;;20.03;77.15
49515;BME280;35415;47.870;16.058;2022-10-16T12:35:54;97862.53;;;20.17;78.04
49515;BME280;35415;47.870;16.058;2022-10-16T12:38:27;97857.75;;;20.23;78.62
49515;BME280;35415;47.870;16.058;2022-10-16T12:40:58;97859.69;;;20.31;78.66
49515;BME280;35415;47.870;16.058;2022-10-16T12:43:34;97861.03;;;20.42;78.63
49515;BME280;35415;47.870;16.058;2022-10-16T12:46:06;97849.34;;;20.50;78.63
49515;BME280;35415;47.870;16.058;2022-10-16T12:48:48;97861.91;;;20.60;78.23
49515;BME280;35415;47.870;16.058;2022-10-16T12:51:24;97855.97;;;20.75;78.00
49515;BME280;35415;47.870;16.058;2022-10-16T12:54:04;97864.22;;;20.84;77.96
49515;BME280;35415;47.870;16.058;2022-10-16T12:56:41;97859.69;;;20.96;78.00
49515;BME280;35415;47.870;16.058;2022-10-16T12:59:19;97864.53;;;21.08;77.67
49515;BME280;35415;47.870;16.058;2022-10-16T13:02:01;97849.56;;;21.14;77.38
49515;BME280;35415;47.870;16.058;2022-10-16T13:05:09;97860.22;;;21.33;77.55